Time;durP1;ratioP1;P1;durP2;ratioP2;P2;SDS_P1;SDS_P2;PMS_P1;PMS_P2;Temp;Humidity;BMP_temperature;BMP_pressure;BME280_temperature;BME280_humidity;BME280_pressure;Samples;Min_cycle;Max_cycle;Signal;HPM_P1;HPM_P2
2021/03/08 00:01:46;;;;;;;0.70;0.70;;;;;;;0.55;55.74;97099.47;299395;206;63005;-59
2021/03/08 00:06:47;;;;;;;0.80;0.80;;;;;;;0.52;55.87;97110.59;299395;270;63009;-58
2021/03/08 00:11:49;;;;;;;0.80;0.80;;;;;;;0.41;56.63;97111.31;299395;232;63004;-59
2021/03/08 00:16:50;;;;;;;0.70;0.70;;;;;;;0.36;56.61;97111.16;299395;246;63009;-60
2021/03/08 00:21:51;;;;;;;0.80;0.80;;;;;;;0.29;56.52;97105.13;299395;199;63004;-58
2021/03/08 00:26:52;;;;;;;0.80;0.80;;;;;;;0.21;56.99;97113.41;299396;277;63009;-59
2021/03/08 00:31:53;;;;;;;0.80;0.80;;;;;;;0.19;56.81;97110.16;299396;205;63005;-59
2021/03/08 00:36:54;;;;;;;0.80;0.80;;;;;;;0.12;56.92;97102.19;299395;256;64013;-58
2021/03/08 00:41:56;;;;;;;0.80;0.80;;;;;;;-0.01;57.62;97103.19;299396;220;63004;-59
2021/03/08 00:46:57;;;;;;;0.80;0.80;;;;;;;-0.04;57.51;97105.47;299396;236;63009;-58
2021/03/08 00:51:58;;;;;;;0.80;0.80;;;;;;;-0.08;57.36;97099.75;299396;281;63004;-58
2021/03/08 00:57:02;;;;;;;0.82;0.82;;;;;;;-0.11;57.99;97100.19;299396;202;63009;-58
2021/03/08 01:02:05;;;;;;;0.80;0.80;;;;;;;-0.12;57.32;97093.22;299418;232;63005;-58
2021/03/08 01:07:06;;;;;;;0.90;0.90;;;;;;;-0.13;57.42;97096.94;299396;196;63008;-59
2021/03/08 01:12:09;;;;;;;0.90;0.90;;;;;;;-0.27;58.78;97105.25;299397;203;63004;-57
2021/03/08 01:17:11;;;;;;;0.90;0.90;;;;;;;-0.32;58.83;97103.25;299397;332;63009;-58
2021/03/08 01:22:11;;;;;;;0.80;0.80;;;;;;;-0.38;58.19;97098.81;299396;226;63004;-58
2021/03/08 01:27:13;;;;;;;0.80;0.80;;;;;;;-0.39;58.47;97094.50;299396;202;63009;-58
2021/03/08 01:32:13;;;;;;;0.90;0.90;;;;;;;-0.45;58.79;97088.19;299396;232;63005;-58
2021/03/08 01:37:14;;;;;;;0.80;0.80;;;;;;;-0.39;59.24;97083.84;299396;358;63009;-58
2021/03/08 01:42:15;;;;;;;0.73;0.73;;;;;;;-0.47;58.60;97073.44;299396;355;63012;-58
2021/03/08 01:47:16;;;;;;;0.80;0.80;;;;;;;-0.40;58.13;97068.88;299396;197;63009;-58
2021/03/08 01:52:17;;;;;;;0.80;0.80;;;;;;;-0.42;57.55;97071.78;299396;202;63005;-59
2021/03/08 01:57:18;;;;;;;0.80;0.80;;;;;;;-0.42;58.76;97068.28;299396;248;63009;-58
2021/03/08 02:02:21;;;;;;;0.80;0.80;;;;;;;-0.49;58.42;97062.19;299397;199;63005;-58
2021/03/08 02:07:21;;;;;;;0.80;0.80;;;;;;;-0.50;58.46;97074.69;299397;203;63009;-58
2021/03/08 02:13:08;;;;;;;0.70;0.70;;;;;;;-0.59;58.91;97062.69;299395;199;63004;-59
2021/03/08 02:18:25;;;;;;;0.80;0.80;;;;;;;-0.34;58.50;97067.97;299417;209;63009;-58
2021/03/08 02:24:07;;;;;;;0.80;0.80;;;;;;;-0.02;57.46;97061.53;299395;197;63005;-59
2021/03/08 02:29:48;;;;;;;0.80;0.80;;;;;;;0.03;57.82;97060.03;299395;270;63009;-57
2021/03/08 02:35:13;;;;;;;0.80;0.80;;;;;;;-0.47;59.88;97057.47;299395;223;63009;-59
2021/03/08 02:40:19;;;;;;;0.80;0.80;;;;;;;-0.78;60.92;97069.81;299395;222;63005;-59
2021/03/08 02:45:25;;;;;;;0.82;0.82;;;;;;;-0.91;61.21;97066.41;299395;217;63009;-59
2021/03/08 02:50:29;;;;;;;0.88;0.88;;;;;;;-1.08;62.67;97071.47;299395;287;63004;-58
2021/03/08 02:55:42;;;;;;;0.90;0.90;;;;;;;-1.18;62.86;97071.09;299417;219;63009;-58
2021/03/08 03:00:46;;;;;;;0.80;0.80;;;;;;;-1.29;63.88;97069.13;299395;260;63005;-58
2021/03/08 03:05:48;;;;;;;0.80;0.80;;;;;;;-1.41;64.18;97069.81;299395;220;63009;-59
2021/03/08 03:10:49;;;;;;;0.80;0.80;;;;;;;-1.71;65.22;97071.34;299395;220;63005;-59
2021/03/08 03:15:52;;;;;;;0.90;0.90;;;;;;;-1.78;65.82;97065.28;299395;197;63009;-58
2021/03/08 03:20:56;;;;;;;0.80;0.80;;;;;;;-1.79;65.57;97066.31;299395;518;63004;-58
2021/03/08 03:25:59;;;;;;;0.80;0.80;;;;;;;-1.91;66.21;97075.94;299395;214;63009;-55
2021/03/08 03:31:03;;;;;;;0.90;0.90;;;;;;;-1.98;66.63;97069.81;299377;224;125005;-58
2021/03/08 03:36:05;;;;;;;2.70;2.45;;;;;;;-2.30;68.14;97071.53;299395;612;63009;-58
2021/03/08 03:41:06;;;;;;;0.90;0.90;;;;;;;-2.18;67.38;97084.00;299395;359;63004;-58
2021/03/08 03:46:07;;;;;;;1.58;1.58;;;;;;;-2.34;68.16;97076.44;299395;223;63009;-58
2021/03/08 03:51:08;;;;;;;0.90;0.90;;;;;;;-2.41;68.59;97086.25;299395;223;63010;-58
2021/03/08 03:56:10;;;;;;;0.80;0.80;;;;;;;-2.46;68.23;97088.75;299395;389;63009;-57
2021/03/08 04:01:21;;;;;;;0.90;0.90;;;;;;;-2.29;69.10;97097.91;299395;845;63005;-58
2021/03/08 04:06:34;;;;;;;0.90;0.90;;;;;;;-2.28;68.56;97107.53;299395;332;63009;-58
2021/03/08 04:11:39;;;;;;;0.90;0.90;;;;;;;-2.13;68.06;97116.09;299395;208;63004;-59
2021/03/08 04:16:46;;;;;;;0.80;0.80;;;;;;;-2.11;67.67;97114.06;299395;222;63009;-58
2021/03/08 04:21:48;;;;;;;0.80;0.80;;;;;;;-2.08;68.17;97113.63;299395;218;63011;-59
2021/03/08 04:26:51;;;;;;;0.80;0.80;;;;;;;-2.19;68.47;97122.25;299395;431;63009;-59
2021/03/08 04:31:53;;;;;;;0.90;0.90;;;;;;;-2.31;68.77;97129.19;299395;499;63012;-59
2021/03/08 04:36:54;;;;;;;8.18;7.80;;;;;;;-2.48;69.65;97128.00;299395;607;63009;-58
2021/03/08 04:41:56;;;;;;;0.90;0.90;;;;;;;-2.30;69.10;97130.00;299395;730;63011;-59
2021/03/08 04:46:58;;;;;;;0.90;0.90;;;;;;;-2.60;70.01;97134.94;299395;295;63009;-58
2021/03/08 04:52:03;;;;;;;6.62;6.18;;;;;;;-2.81;70.22;97143.91;299395;213;63005;-57
2021/03/08 04:57:07;;;;;;;0.90;0.90;;;;;;;-2.80;71.04;97149.03;299395;215;63009;-56
2021/03/08 05:02:14;;;;;;;0.90;0.90;;;;;;;-2.75;70.25;97138.59;299417;693;63005;-57
2021/03/08 05:07:18;;;;;;;0.90;0.90;;;;;;;-2.93;71.31;97146.34;299395;796;63009;-57
2021/03/08 05:12:22;;;;;;;0.90;0.90;;;;;;;-3.03;71.46;97154.69;299417;361;63004;-59
2021/03/08 05:17:24;;;;;;;0.90;0.90;;;;;;;-3.02;71.66;97158.16;299439;595;63019;-57
2021/03/08 05:22:26;;;;;;;0.90;0.90;;;;;;;-2.97;71.75;97150.41;299395;216;63005;-59
2021/03/08 05:27:27;;;;;;;0.90;0.90;;;;;;;-2.93;71.44;97153.47;299395;209;63017;-57
2021/03/08 05:32:31;;;;;;;1.00;1.00;;;;;;;-2.92;71.50;97152.47;299395;222;63004;-59
2021/03/08 05:37:35;;;;;;;0.82;0.82;;;;;;;-2.79;71.53;97158.63;299439;467;63009;-59
2021/03/08 05:42:38;;;;;;;0.90;0.90;;;;;;;-2.68;71.37;97159.03;299417;553;63004;-57
2021/03/08 05:48:20;;;;;;;0.90;0.90;;;;;;;-2.66;71.13;97164.97;299395;305;63009;-57
2021/03/08 05:54:03;;;;;;;0.90;0.90;;;;;;;-2.63;71.26;97172.53;299395;212;63009;-57
2021/03/08 05:59:31;;;;;;;0.90;0.90;;;;;;;-2.71;71.78;97168.22;299395;213;63005;-59
2021/03/08 06:05:19;;;;;;;0.90;0.90;;;;;;;-2.59;71.28;97173.75;299395;212;63008;-56
2021/03/08 06:10:24;;;;;;;0.82;0.82;;;;;;;-2.64;71.74;97176.19;299395;358;63004;-56
2021/03/08 06:15:27;;;;;;;0.90;0.90;;;;;;;-2.58;71.31;97176.22;299395;683;63009;-56
2021/03/08 06:20:29;;;;;;;0.90;0.90;;;;;;;-2.55;71.84;97175.81;299395;680;63005;-57
2021/03/08 06:25:31;;;;;;;1.37;1.37;;;;;;;-2.52;71.73;97172.75;299395;275;63009;-58
2021/03/08 06:30:32;;;;;;;0.90;0.90;;;;;;;-2.46;72.02;97163.16;299395;871;63005;-56
2021/03/08 06:35:33;;;;;;;0.90;0.90;;;;;;;-2.45;71.66;97176.22;299395;496;63018;-56
2021/03/08 06:40:34;;;;;;;0.80;0.80;;;;;;;-2.42;71.97;97186.44;299395;788;63004;-56
2021/03/08 06:45:35;;;;;;;0.90;0.90;;;;;;;-2.31;72.24;97187.66;299395;424;63009;-56
2021/03/08 06:50:36;;;;;;;0.90;0.90;;;;;;;-2.30;72.51;97204.44;299395;211;63005;-56
2021/03/08 06:55:37;;;;;;;0.90;0.90;;;;;;;-2.13;71.64;97205.69;299395;202;63009;-57
2021/03/08 07:00:38;;;;;;;0.90;0.90;;;;;;;-2.05;71.74;97214.25;299395;214;63005;-57
2021/03/08 07:05:39;;;;;;;1.00;1.00;;;;;;;-2.03;71.94;97211.37;299395;317;63009;-57
2021/03/08 07:10:43;;;;;;;0.80;0.80;;;;;;;-1.92;71.82;97209.94;299395;523;63004;-56
2021/03/08 07:15:58;;;;;;;0.80;0.80;;;;;;;-1.77;70.85;97210.56;299417;211;63009;-57
2021/03/08 07:21:21;;;;;;;0.90;0.90;;;;;;;-1.65;70.95;97219.50;299395;220;63005;-59
2021/03/08 07:26:25;;;;;;;0.90;0.90;;;;;;;-1.50;70.95;97222.78;299395;642;63009;-58
2021/03/08 07:31:35;;;;;;;0.90;0.90;;;;;;;-1.31;70.23;97228.22;299395;196;63004;-58
2021/03/08 07:36:42;;;;;;;0.80;0.80;;;;;;;-1.25;69.83;97230.06;299395;228;63009;-58
2021/03/08 07:41:54;;;;;;;0.80;0.80;;;;;;;-1.22;69.64;97249.09;299395;342;63004;-59
2021/03/08 07:47:14;;;;;;;0.80;0.80;;;;;;;-0.99;68.53;97245.12;299395;231;63009;-58
2021/03/08 07:52:18;;;;;;;0.80;0.80;;;;;;;-0.47;65.95;97239.53;299395;245;63010;-58
2021/03/08 07:57:20;;;;;;;0.80;0.80;;;;;;;-0.53;67.40;97239.56;299395;220;63009;-58
2021/03/08 08:02:22;;;;;;;2.17;2.08;;;;;;;-0.41;66.41;97243.19;299395;300;63004;-55
2021/03/08 08:07:26;;;;;;;0.80;0.80;;;;;;;-0.17;66.05;97239.75;299395;332;63009;-57
2021/03/08 08:12:33;;;;;;;1.12;1.12;;;;;;;-0.06;65.44;97239.06;299417;223;63005;-55
2021/03/08 08:17:36;;;;;;;0.80;0.80;;;;;;;0.31;63.55;97236.50;299395;244;63009;-55
2021/03/08 08:22:52;;;;;;;0.80;0.80;;;;;;;0.37;63.48;97243.59;299395;211;63005;-56
2021/03/08 08:27:54;;;;;;;0.80;0.80;;;;;;;0.70;63.14;97251.28;299395;219;63009;-59
2021/03/08 08:32:59;;;;;;;0.80;0.80;;;;;;;1.01;61.24;97242.34;299395;289;63004;-58
2021/03/08 08:38:26;;;;;;;1.77;1.67;;;;;;;0.93;62.16;97251.47;299395;225;63009;-55
2021/03/08 08:43:27;;;;;;;0.88;0.88;;;;;;;1.11;61.80;97237.25;299395;194;63005;-57
2021/03/08 08:48:29;;;;;;;0.80;0.80;;;;;;;1.33;60.27;97230.41;299395;236;63008;-58
2021/03/08 08:53:42;;;;;;;0.80;0.80;;;;;;;1.69;58.76;97234.03;299395;285;63004;-58
2021/03/08 08:58:50;;;;;;;1.12;1.12;;;;;;;1.84;58.53;97231.72;299395;256;63009;-57
2021/03/08 09:04:19;;;;;;;0.93;0.93;;;;;;;1.42;59.12;97233.56;299395;226;63004;-57
2021/03/08 09:09:47;;;;;;;0.80;0.80;;;;;;;1.85;59.77;97236.03;299395;236;63009;-58
2021/03/08 09:15:12;;;;;;;0.80;0.80;;;;;;;1.62;59.57;97234.13;299395;218;63005;-57
2021/03/08 09:20:25;;;;;;;0.80;0.80;;;;;;;2.22;57.85;97233.19;299417;341;63009;-54
2021/03/08 09:25:37;;;;;;;0.80;0.80;;;;;;;2.23;57.93;97235.66;299395;218;63004;-58
2021/03/08 09:30:44;;;;;;;0.80;0.80;;;;;;;2.36;56.68;97237.28;299395;259;63009;-54
2021/03/08 09:35:49;;;;;;;0.80;0.80;;;;;;;1.93;58.68;97240.25;299395;336;63005;-56
2021/03/08 09:40:56;;;;;;;0.80;0.80;;;;;;;2.05;57.11;97237.62;299395;203;63008;-54
2021/03/08 09:46:04;;;;;;;1.17;1.17;;;;;;;2.26;56.45;97235.19;299395;242;63004;-55
2021/03/08 09:51:16;;;;;;;0.98;0.98;;;;;;;1.90;57.46;97235.34;299395;221;63009;-56
2021/03/08 09:56:20;;;;;;;0.80;0.80;;;;;;;2.37;56.70;97224.72;299395;289;63005;-56
2021/03/08 10:01:22;;;;;;;0.75;0.75;;;;;;;2.35;56.25;97227.63;299417;207;63009;-53
2021/03/08 10:06:31;;;;;;;0.80;0.80;;;;;;;2.38;55.79;97226.34;299395;209;63005;-54
2021/03/08 10:11:31;;;;;;;0.80;0.80;;;;;;;2.72;55.01;97222.84;299395;312;63009;-59
2021/03/08 10:16:33;;;;;;;0.70;0.70;;;;;;;3.14;53.77;97211.91;299395;219;63004;-54
2021/03/08 10:21:43;;;;;;;0.80;0.80;;;;;;;3.20;53.51;97210.97;299395;210;63009;-56
2021/03/08 10:26:45;;;;;;;0.70;0.70;;;;;;;3.24;53.32;97215.59;299395;302;63005;-58
2021/03/08 10:31:51;;;;;;;0.70;0.70;;;;;;;3.32;53.41;97212.56;299395;209;63009;-54
2021/03/08 10:36:52;;;;;;;0.70;0.70;;;;;;;3.31;52.38;97221.66;299395;238;63005;-59
2021/03/08 10:41:54;;;;;;;0.80;0.80;;;;;;;3.60;51.02;97208.22;299395;197;63009;-54
2021/03/08 10:46:55;;;;;;;0.70;0.70;;;;;;;3.51;50.58;97209.66;299395;255;63004;-53
2021/03/08 10:52:09;;;;;;;0.88;0.88;;;;;;;3.34;51.09;97206.94;299395;246;63009;-58
2021/03/08 10:57:12;;;;;;;0.80;0.80;;;;;;;3.35;50.36;97198.66;299417;278;63005;-59
2021/03/08 11:02:15;;;;;;;0.70;0.70;;;;;;;3.46;50.59;97206.91;299395;210;63009;-53
2021/03/08 11:07:29;;;;;;;0.70;0.70;;;;;;;3.64;50.41;97199.47;299395;197;63005;-59
2021/03/08 11:12:32;;;;;;;0.70;0.70;;;;;;;3.68;47.69;97197.94;299395;224;63009;-59
2021/03/08 11:17:41;;;;;;;0.70;0.70;;;;;;;3.68;47.85;97194.44;299394;205;64008;-61
2021/03/08 11:23:04;;;;;;;0.70;0.70;;;;;;;3.84;46.99;97199.00;299395;212;63009;-61
2021/03/08 11:28:16;;;;;;;0.70;0.70;;;;;;;3.91;47.58;97205.03;299395;236;63009;-59
2021/03/08 11:33:18;;;;;;;0.70;0.70;;;;;;;4.01;46.28;97194.47;299395;223;63004;-60
2021/03/08 11:38:26;;;;;;;0.70;0.70;;;;;;;3.95;47.41;97211.53;299395;226;63009;-60
2021/03/08 11:43:27;;;;;;;0.80;0.80;;;;;;;3.99;47.59;97196.59;299395;274;63005;-59
2021/03/08 11:48:28;;;;;;;0.70;0.70;;;;;;;4.17;46.93;97184.78;299395;224;63009;-58
2021/03/08 11:53:29;;;;;;;3.95;3.12;;;;;;;4.12;45.82;97183.91;299395;256;63003;-57
2021/03/08 11:58:30;;;;;;;0.70;0.70;;;;;;;3.92;47.11;97181.69;299395;220;63009;-60
2021/03/08 12:03:32;;;;;;;0.70;0.70;;;;;;;4.08;47.64;97172.03;299395;231;63010;-59
2021/03/08 12:08:32;;;;;;;0.80;0.80;;;;;;;4.41;45.04;97157.75;299395;204;63022;-59
2021/03/08 12:13:33;;;;;;;1.17;1.12;;;;;;;4.12;46.17;97160.53;299395;218;63005;-59
2021/03/08 12:18:34;;;;;;;0.70;0.70;;;;;;;4.28;46.25;97156.19;299395;204;63009;-63
2021/03/08 12:23:35;;;;;;;2.30;2.20;;;;;;;4.34;43.42;97139.09;299395;246;63004;-59
2021/03/08 12:28:36;;;;;;;0.80;0.80;;;;;;;4.33;43.57;97138.28;299395;199;63009;-60
2021/03/08 12:33:37;;;;;;;0.70;0.70;;;;;;;4.53;44.39;97137.75;299395;260;63005;-60
2021/03/08 12:38:39;;;;;;;0.80;0.80;;;;;;;4.55;44.84;97132.94;299395;213;63009;-58
2021/03/08 12:43:40;;;;;;;0.70;0.70;;;;;;;4.72;42.51;97120.28;299395;214;63005;-60
2021/03/08 12:48:41;;;;;;;0.80;0.80;;;;;;;4.71;41.35;97107.91;299395;245;63009;-56
2021/03/08 12:53:42;;;;;;;0.80;0.80;;;;;;;4.63;40.03;97100.25;299395;224;63004;-56
2021/03/08 12:58:48;;;;;;;0.70;0.70;;;;;;;4.64;42.21;97101.88;299395;228;63009;-54
2021/03/08 13:03:49;;;;;;;0.75;0.75;;;;;;;4.84;41.50;97105.91;299396;203;63005;-62
2021/03/08 13:08:55;;;;;;;0.70;0.70;;;;;;;4.91;40.54;97093.06;299396;232;63009;-57
2021/03/08 13:13:59;;;;;;;0.70;0.70;;;;;;;5.04;40.88;97087.31;299396;202;63005;-58
2021/03/08 13:19:00;;;;;;;0.70;0.70;;;;;;;5.13;40.20;97082.28;299418;209;63009;-57
2021/03/08 13:24:01;;;;;;;0.70;0.70;;;;;;;5.13;39.68;97082.28;299396;218;63004;-58
2021/03/08 13:29:02;;;;;;;0.70;0.70;;;;;;;5.16;40.62;97073.72;299396;220;63009;-58
2021/03/08 13:34:04;;;;;;;0.70;0.70;;;;;;;5.34;39.63;97074.16;299396;216;63021;-57
2021/03/08 13:39:06;;;;;;;0.70;0.70;;;;;;;5.25;39.63;97070.28;299396;222;63009;-58
2021/03/08 13:44:07;;;;;;;0.70;0.70;;;;;;;5.41;39.23;97073.13;299397;244;63005;-57
2021/03/08 13:49:08;;;;;;;1.60;1.60;;;;;;;5.48;39.61;97061.09;299397;199;63009;-58
2021/03/08 13:54:10;;;;;;;0.80;0.80;;;;;;;5.59;39.23;97061.97;299396;225;63004;-54
2021/03/08 13:59:13;;;;;;;0.70;0.70;;;;;;;5.48;40.33;97063.78;299396;198;63009;-57
2021/03/08 14:04:15;;;;;;;0.70;0.70;;;;;;;5.73;39.37;97061.31;299396;216;63005;-59
2021/03/08 14:09:16;;;;;;;0.70;0.70;;;;;;;5.36;39.48;97055.06;299396;221;63008;-53
2021/03/08 14:14:17;;;;;;;0.70;0.70;;;;;;;5.40;39.89;97058.87;299396;222;63004;-53
2021/03/08 14:19:18;;;;;;;0.70;0.70;;;;;;;5.70;39.13;97055.62;299396;246;63018;-52
2021/03/08 14:24:20;;;;;;;0.80;0.80;;;;;;;5.79;39.04;97043.31;299396;282;63014;-60
2021/03/08 14:29:24;;;;;;;0.70;0.70;;;;;;;5.74;38.82;97048.66;299396;236;63009;-56
2021/03/08 14:34:25;;;;;;;0.70;0.70;;;;;;;5.84;38.68;97039.84;299418;219;63005;-58
2021/03/08 14:39:27;;;;;;;0.70;0.70;;;;;;;5.89;38.27;97031.84;299397;323;63008;-56
2021/03/08 14:44:28;;;;;;;0.70;0.70;;;;;;;5.94;38.65;97034.53;299397;212;63004;-55
2021/03/08 14:49:32;;;;;;;0.70;0.70;;;;;;;6.10;37.81;97022.00;299395;207;63009;-61
2021/03/08 15:00:16;;;;;;;0.70;0.70;;;;;;;5.92;38.38;97026.72;299395;237;63009;-53
2021/03/08 15:05:17;;;;;;;0.70;0.70;;;;;;;5.88;37.93;97014.84;299395;197;63005;-55
2021/03/08 15:10:19;;;;;;;0.70;0.70;;;;;;;5.91;37.88;97014.31;299395;293;63009;-59
2021/03/08 15:15:20;;;;;;;0.70;0.70;;;;;;;6.13;36.85;97016.88;299395;245;63004;-59
2021/03/08 15:20:22;;;;;;;0.70;0.70;;;;;;;5.95;37.14;97014.63;299395;267;63009;-60
2021/03/08 15:25:23;;;;;;;0.70;0.70;;;;;;;5.82;38.06;97020.44;299395;269;63005;-57
2021/03/08 15:30:27;;;;;;;0.70;0.70;;;;;;;5.75;38.21;97020.66;299395;202;63009;-57
2021/03/08 15:35:30;;;;;;;0.70;0.70;;;;;;;5.67;39.15;97019.25;299417;196;63005;-53
2021/03/08 15:40:33;;;;;;;0.70;0.70;;;;;;;5.78;39.01;97020.16;299395;282;63009;-55
2021/03/08 15:45:35;;;;;;;0.70;0.70;;;;;;;5.95;38.09;97015.44;299395;283;63004;-57
2021/03/08 15:50:36;;;;;;;0.70;0.70;;;;;;;5.96;38.01;97017.06;299395;214;63019;-53
2021/03/08 15:55:37;;;;;;;0.70;0.70;;;;;;;6.05;37.55;97015.50;299395;217;63005;-59
2021/03/08 16:00:38;;;;;;;0.70;0.70;;;;;;;5.96;37.21;97017.06;299395;220;63009;-55
2021/03/08 16:05:39;;;;;;;3.15;3.05;;;;;;;5.77;38.33;97018.53;299395;202;63004;-54
2021/03/08 16:10:40;;;;;;;0.70;0.70;;;;;;;5.55;39.16;97005.16;299395;202;63009;-52
2021/03/08 16:15:42;;;;;;;0.70;0.70;;;;;;;5.48;39.57;97009.16;299395;253;63004;-54
2021/03/08 16:20:46;;;;;;;0.70;0.70;;;;;;;5.32;40.30;97021.66;299395;199;63009;-57
2021/03/08 16:25:50;;;;;;;0.70;0.70;;;;;;;5.19;40.39;97022.09;299395;229;63005;-58
2021/03/08 16:31:00;;;;;;;0.70;0.70;;;;;;;5.14;40.86;97014.78;299417;295;63008;-57
2021/03/08 16:36:02;;;;;;;0.70;0.70;;;;;;;4.97;41.58;97030.22;299395;302;63004;-58
2021/03/08 16:41:04;;;;;;;0.70;0.70;;;;;;;4.86;41.35;97017.72;299395;218;63009;-58
2021/03/08 16:46:07;;;;;;;0.70;0.70;;;;;;;4.76;42.01;97020.31;299395;210;63004;-58
2021/03/08 16:51:09;;;;;;;0.60;0.60;;;;;;;4.63;42.05;97025.00;299395;207;63009;-57
2021/03/08 16:56:14;;;;;;;0.60;0.60;;;;;;;4.47;42.95;97036.66;299395;206;63005;-51
2021/03/08 17:01:18;;;;;;;0.70;0.70;;;;;;;4.27;43.91;97037.19;299417;240;63013;-56
2021/03/08 17:06:21;;;;;;;0.70;0.70;;;;;;;4.15;45.45;97049.13;299417;333;63004;-56
2021/03/08 17:11:22;;;;;;;0.70;0.70;;;;;;;3.93;45.73;97052.59;299395;264;63009;-56
2021/03/08 17:16:24;;;;;;;0.70;0.70;;;;;;;3.81;45.98;97059.91;299395;218;63004;-56
2021/03/08 17:21:25;;;;;;;0.70;0.70;;;;;;;3.70;47.03;97075.06;299395;218;63009;-57
2021/03/08 17:26:26;;;;;;;0.70;0.70;;;;;;;3.57;47.27;97074.56;299395;197;63005;-57
2021/03/08 17:31:28;;;;;;;0.70;0.70;;;;;;;3.45;48.08;97073.84;299395;221;63009;-57
2021/03/08 17:36:29;;;;;;;0.70;0.70;;;;;;;3.29;49.06;97076.25;299395;273;63004;-58
2021/03/08 17:41:30;;;;;;;0.80;0.80;;;;;;;3.14;50.61;97089.37;299395;206;63009;-58
2021/03/08 17:46:31;;;;;;;0.70;0.70;;;;;;;3.09;50.74;97089.31;299395;203;63005;-53
2021/03/08 17:51:33;;;;;;;0.80;0.80;;;;;;;3.01;51.06;97087.00;299395;229;63009;-53
2021/03/08 17:56:34;;;;;;;0.70;0.70;;;;;;;2.95;51.05;97087.97;299395;229;63005;-53
2021/03/08 18:01:38;;;;;;;0.70;0.70;;;;;;;2.93;51.27;97106.16;299395;302;63009;-53
2021/03/08 18:06:39;;;;;;;0.70;0.70;;;;;;;2.84;51.88;97105.72;299417;245;63004;-52
2021/03/08 18:11:40;;;;;;;0.70;0.70;;;;;;;2.77;52.37;97101.56;299395;207;63009;-53
2021/03/08 18:16:42;;;;;;;0.80;0.80;;;;;;;2.74;53.24;97118.13;299395;203;63005;-52
2021/03/08 18:21:43;;;;;;;0.70;0.70;;;;;;;2.71;54.13;97115.91;299395;228;63009;-52
2021/03/08 18:26:44;;;;;;;0.80;0.80;;;;;;;2.63;54.04;97127.81;299395;220;63005;-52
2021/03/08 18:31:45;;;;;;;0.70;0.70;;;;;;;2.55;54.27;97126.28;299395;214;63009;-52
2021/03/08 18:36:46;;;;;;;0.70;0.70;;;;;;;2.59;54.68;97138.16;299395;265;63004;-53
2021/03/08 18:41:47;;;;;;;0.70;0.70;;;;;;;2.55;54.86;97137.00;299395;304;63009;-54
2021/03/08 18:46:48;;;;;;;0.70;0.70;;;;;;;2.54;54.89;97130.03;299395;277;63012;-53
2021/03/08 18:51:53;;;;;;;0.70;0.70;;;;;;;2.49;55.90;97137.94;299395;202;63008;-53
2021/03/08 18:56:54;;;;;;;0.80;0.80;;;;;;;2.44;56.81;97128.97;299395;196;63004;-53
2021/03/08 19:01:57;;;;;;;0.80;0.80;;;;;;;2.46;56.59;97127.69;299395;228;63009;-54
2021/03/08 19:06:58;;;;;;;0.80;0.80;;;;;;;2.47;56.55;97133.88;299395;202;63004;-55
2021/03/08 19:12:01;;;;;;;0.68;0.68;;;;;;;2.44;57.27;97129.78;299395;228;63009;-54
2021/03/08 19:17:02;;;;;;;0.80;0.80;;;;;;;2.41;57.51;97134.84;299395;256;63005;-59
2021/03/08 19:22:06;;;;;;;0.80;0.80;;;;;;;2.35;57.75;97132.03;299395;228;63008;-54
2021/03/08 19:27:08;;;;;;;0.80;0.80;;;;;;;2.28;58.14;97135.87;299395;216;63004;-53
2021/03/08 19:32:10;;;;;;;0.80;0.80;;;;;;;2.27;58.21;97128.91;299395;211;63009;-54
2021/03/08 19:37:11;;;;;;;0.70;0.70;;;;;;;2.27;58.13;97123.53;299395;251;63004;-53
2021/03/08 19:42:12;;;;;;;0.70;0.70;;;;;;;2.21;58.83;97127.16;299395;225;63009;-55
2021/03/08 19:47:16;;;;;;;0.80;0.80;;;;;;;2.21;58.12;97127.16;299395;233;63005;-53
2021/03/08 19:52:17;;;;;;;0.70;0.70;;;;;;;2.22;58.92;97120.75;299417;198;63008;-52
2021/03/08 19:57:21;;;;;;;0.70;0.70;;;;;;;2.18;58.81;97124.94;299395;337;63004;-54
2021/03/08 20:02:22;;;;;;;0.70;0.70;;;;;;;2.10;59.12;97125.28;299417;231;63009;-53
2021/03/08 20:07:25;;;;;;;0.70;0.70;;;;;;;1.98;59.93;97126.13;299395;244;63004;-54
2021/03/08 20:12:26;;;;;;;0.70;0.70;;;;;;;1.92;59.70;97116.34;299395;216;63017;-53
2021/03/08 20:17:27;;;;;;;0.70;0.70;;;;;;;1.92;60.25;97110.19;299395;204;63005;-55
2021/03/08 20:22:29;;;;;;;0.70;0.70;;;;;;;1.92;60.24;97116.34;299395;236;63009;-53
2021/03/08 20:27:30;;;;;;;0.70;0.70;;;;;;;1.84;61.14;97119.34;299395;202;63004;-54
2021/03/08 20:32:34;;;;;;;0.70;0.70;;;;;;;1.73;61.70;97122.03;299395;206;63009;-54
2021/03/08 20:37:36;;;;;;;0.77;0.77;;;;;;;1.55;61.78;97130.94;299417;257;63005;-54
2021/03/08 20:42:41;;;;;;;0.70;0.70;;;;;;;1.30;62.73;97139.97;299373;206;63009;-54
2021/03/08 20:47:44;;;;;;;0.70;0.70;;;;;;;1.19;62.92;97132.72;299417;252;63005;-53
2021/03/08 20:52:46;;;;;;;0.70;0.70;;;;;;;1.21;63.38;97133.31;299395;204;63009;-55
2021/03/08 20:57:46;;;;;;;0.80;0.80;;;;;;;1.11;63.83;97126.87;299395;289;63011;-54
2021/03/08 21:02:48;;;;;;;0.80;0.80;;;;;;;1.00;63.83;97128.47;299395;196;63009;-54
2021/03/08 21:07:49;;;;;;;0.80;0.80;;;;;;;0.94;64.37;97134.72;299395;205;63005;-55
2021/03/08 21:12:51;;;;;;;0.80;0.80;;;;;;;0.86;64.67;97117.12;299395;196;63009;-54
2021/03/08 21:17:53;;;;;;;0.80;0.80;;;;;;;0.84;64.56;97123.75;299395;218;63005;-53
2021/03/08 21:22:56;;;;;;;0.80;0.80;;;;;;;0.77;64.94;97117.66;299395;261;63009;-55
2021/03/08 21:27:57;;;;;;;0.80;0.80;;;;;;;0.68;65.16;97124.38;299395;198;63004;-55
2021/03/08 21:32:59;;;;;;;0.80;0.80;;;;;;;0.73;65.05;97124.50;299395;215;63009;-54
2021/03/08 21:38:01;;;;;;;0.75;0.75;;;;;;;0.68;65.36;97124.38;299395;227;63005;-55
2021/03/08 21:43:02;;;;;;;0.80;0.80;;;;;;;0.68;65.27;97121.72;299395;218;63009;-55
2021/03/08 21:48:04;;;;;;;0.80;0.80;;;;;;;0.62;65.68;97121.56;299395;236;63005;-54
2021/03/08 21:53:06;;;;;;;0.80;0.80;;;;;;;0.59;65.55;97122.00;299395;214;63009;-54
2021/03/08 21:58:07;;;;;;;0.80;0.80;;;;;;;0.53;65.78;97112.22;299394;203;64009;-54
2021/03/08 22:03:09;;;;;;;0.80;0.80;;;;;;;0.55;66.10;97110.13;299395;228;63009;-54
2021/03/08 22:08:10;;;;;;;0.80;0.80;;;;;;;0.45;66.50;97115.19;299395;206;63005;-55
2021/03/08 22:13:14;;;;;;;0.80;0.80;;;;;;;0.38;66.78;97114.44;299395;390;63008;-54
2021/03/08 22:18:15;;;;;;;0.80;0.80;;;;;;;0.41;66.70;97108.66;299417;212;63004;-54
2021/03/08 22:23:16;;;;;;;0.80;0.80;;;;;;;0.31;67.27;97113.72;299395;357;63009;-54
2021/03/08 22:28:17;;;;;;;0.80;0.80;;;;;;;0.29;67.44;97105.13;299395;211;63004;-55
2021/03/08 22:33:18;;;;;;;0.80;0.80;;;;;;;0.28;67.46;97103.47;299395;202;63009;-55
2021/03/08 22:38:20;;;;;;;0.80;0.80;;;;;;;0.15;67.74;97103.63;299395;228;63005;-55
2021/03/08 22:43:21;;;;;;;0.88;0.88;;;;;;;0.15;67.79;97098.28;299395;198;63008;-55
2021/03/08 22:48:22;;;;;;;0.80;0.80;;;;;;;0.13;67.82;97087.00;299395;224;63004;-54
2021/03/08 22:53:23;;;;;;;0.70;0.70;;;;;;;0.07;68.13;97080.72;299395;230;63009;-54
2021/03/08 22:58:24;;;;;;;0.80;0.80;;;;;;;0.05;68.29;97081.97;299395;330;63004;-54
2021/03/08 23:03:24;;;;;;;0.80;0.80;;;;;;;0.02;68.29;97071.72;299395;249;63009;-55
2021/03/08 23:08:25;;;;;;;0.80;0.80;;;;;;;-0.03;68.54;97070.56;299395;199;63005;-55
2021/03/08 23:13:26;;;;;;;0.70;0.70;;;;;;;-0.07;68.55;97068.56;299395;227;63008;-55
2021/03/08 23:18:27;;;;;;;0.70;0.70;;;;;;;-0.07;68.70;97074.72;299395;220;63004;-55
2021/03/08 23:23:30;;;;;;;0.80;0.80;;;;;;;-0.09;68.73;97066.13;299395;203;63009;-55
2021/03/08 23:28:32;;;;;;;0.80;0.80;;;;;;;-0.15;68.97;97056.31;299395;227;63005;-54
2021/03/08 23:33:33;;;;;;;0.80;0.80;;;;;;;-0.28;70.05;97051.09;299395;363;63009;-54
2021/03/08 23:38:34;;;;;;;0.70;0.70;;;;;;;-0.33;70.09;97053.63;299395;210;63005;-54
2021/03/08 23:43:35;;;;;;;0.80;0.80;;;;;;;-0.42;70.04;97049.63;299395;210;63009;-56
2021/03/08 23:48:36;;;;;;;0.80;0.80;;;;;;;-0.42;70.25;97042.44;299395;280;63004;-55
2021/03/08 23:53:37;;;;;;;0.90;0.90;;;;;;;-0.44;70.38;97036.50;299395;294;63017;-52
2021/03/08 23:58:37;;;;;;;0.90;0.90;;;;;;;-0.50;70.78;97036.56;299395;232;63005;-54
